Time;durP1;ratioP1;P1;durP2;ratioP2;P2;SDS_P1;SDS_P2;PMS_P1;PMS_P2;Temp;Humidity;BMP_temperature;BMP_pressure;BME280_temperature;BME280_humidity;BME280_pressure;Samples;Min_cycle;Max_cycle;Signal;HPM_P1;HPM_P2
2023/01/14 00:01:52;;;;;;;16.37;7.70;;;7.50;99.90;;;;;;4996524;28;20200;-66
2023/01/14 00:04:18;;;;;;;29.83;8.93;;;7.50;99.90;;;;;;4996420;28;20173;-66
2023/01/14 00:06:44;;;;;;;20.83;7.20;;;7.60;99.90;;;;;;4996467;28;20177;-66
2023/01/14 00:09:13;;;;;;;22.40;7.67;;;7.50;99.90;;;;;;4996595;28;20188;-65
2023/01/14 00:11:51;;;;;;;28.43;8.30;;;7.50;99.90;;;;;;4996446;28;20715;-66
2023/01/14 00:14:19;;;;;;;32.40;7.67;;;7.50;99.90;;;;;;4996247;28;20238;-65
2023/01/14 00:16:45;;;;;;;21.33;8.50;;;7.50;99.90;;;;;;4994827;28;20192;-66
2023/01/14 00:19:11;;;;;;;25.63;8.87;;;7.50;99.90;;;;;;5011339;28;20275;-66
2023/01/14 00:21:37;;;;;;;17.83;7.20;;;7.50;99.90;;;;;;4996512;28;20196;-65
2023/01/14 00:24:03;;;;;;;18.83;6.70;;;7.50;99.90;;;;;;4996141;28;20272;-66
2023/01/14 00:26:30;;;;;;;24.63;7.47;;;7.50;99.90;;;;;;4995881;28;20176;-66
2023/01/14 00:28:56;;;;;;;27.53;7.90;;;7.40;99.90;;;;;;4996080;28;20176;-66
2023/01/14 00:31:24;;;;;;;20.20;7.83;;;7.40;99.90;;;;;;5011004;28;20667;-66
2023/01/14 00:33:51;;;;;;;23.83;8.40;;;7.40;99.90;;;;;;4996333;28;20180;-66
2023/01/14 00:36:20;;;;;;;24.97;7.90;;;7.40;99.90;;;;;;4996050;28;20246;-66
2023/01/14 00:38:46;;;;;;;24.00;7.53;;;7.40;99.90;;;;;;4995710;28;20299;-66
2023/01/14 00:41:17;;;;;;;24.13;7.80;;;7.40;99.90;;;;;;4995792;28;20226;-66
2023/01/14 00:43:45;;;;;;;24.17;7.67;;;7.40;99.90;;;;;;4995677;28;20195;-66
2023/01/14 00:46:13;;;;;;;25.00;7.80;;;7.40;99.90;;;;;;4995609;28;20558;-66
2023/01/14 00:48:40;;;;;;;29.17;7.97;;;7.40;99.90;;;;;;4994404;28;20189;-66
2023/01/14 00:51:06;;;;;;;24.37;8.67;;;7.30;99.90;;;;;;4995560;28;20233;-66
2023/01/14 00:53:33;;;;;;;27.20;8.43;;;7.30;99.90;;;;;;4995485;28;20208;-66
2023/01/14 00:55:59;;;;;;;30.67;7.53;;;7.30;99.90;;;;;;4995539;28;20637;-66
2023/01/14 00:58:25;;;;;;;24.53;8.03;;;7.30;99.90;;;;;;4995412;28;20208;-65
2023/01/14 01:00:52;;;;;;;24.07;7.63;;;7.40;99.90;;;;;;4995916;28;20172;-66
2023/01/14 01:03:18;;;;;;;28.93;7.53;;;7.30;99.90;;;;;;4995220;28;20192;-66
2023/01/14 01:05:44;;;;;;;25.70;8.20;;;7.40;99.90;;;;;;5010287;28;20188;-66
2023/01/14 01:08:14;;;;;;;19.43;7.70;;;7.40;99.90;;;;;;4995865;28;20212;-66
2023/01/14 01:10:44;;;;;;;24.17;7.63;;;7.30;99.90;;;;;;4995071;28;20180;-66
2023/01/14 01:13:11;;;;;;;20.93;7.77;;;7.30;99.90;;;;;;4995453;28;20200;-66
2023/01/14 01:15:38;;;;;;;27.00;8.07;;;7.30;99.90;;;;;;4995043;28;20197;-66
2023/01/14 01:18:05;;;;;;;22.67;8.80;;;7.30;99.90;;;;;;4994920;28;20200;-66
2023/01/14 01:20:31;;;;;;;24.17;7.10;;;7.40;99.90;;;;;;4995563;28;20260;-66
2023/01/14 01:22:57;;;;;;;26.60;6.83;;;7.40;99.90;;;;;;4995225;28;20192;-66
2023/01/14 01:25:23;;;;;;;26.33;8.50;;;7.40;99.90;;;;;;4994023;28;20195;-66
2023/01/14 01:27:49;;;;;;;23.47;7.13;;;7.30;99.90;;;;;;4995110;28;20188;-66
2023/01/14 01:30:16;;;;;;;19.10;6.90;;;7.40;99.90;;;;;;4993841;28;20188;-66
2023/01/14 01:32:41;;;;;;;25.70;8.10;;;7.30;99.90;;;;;;4994786;28;20197;-66
2023/01/14 01:35:08;;;;;;;22.13;8.67;;;7.30;99.90;;;;;;4993847;28;20192;-66
2023/01/14 01:37:34;;;;;;;22.97;7.00;;;7.30;99.90;;;;;;4995571;28;20201;-66
2023/01/14 01:39:59;;;;;;;25.97;7.10;;;7.30;99.90;;;;;;4996499;28;20185;-66
2023/01/14 01:42:28;;;;;;;25.13;7.33;;;7.30;99.90;;;;;;4995880;28;20201;-66
2023/01/14 01:44:54;;;;;;;26.70;8.07;;;7.30;99.90;;;;;;4996159;28;20204;-66
2023/01/14 01:47:22;;;;;;;26.23;7.90;;;7.30;99.90;;;;;;4995704;28;20224;-66
2023/01/14 01:49:48;;;;;;;32.50;9.73;;;7.40;99.90;;;;;;4995289;28;20231;-66
2023/01/14 01:52:29;;;;;;;22.47;8.27;;;7.30;99.90;;;;;;5010365;28;20212;-66
2023/01/14 01:55:03;;;;;;;20.03;7.50;;;7.30;99.90;;;;;;4994850;28;20235;-66
2023/01/14 01:57:30;;;;;;;23.13;7.57;;;7.30;99.90;;;;;;4994840;28;20214;-64
2023/01/14 02:00:00;;;;;;;24.93;7.90;;;7.30;99.90;;;;;;4994507;28;20184;-66
2023/01/14 02:02:28;;;;;;;19.50;8.63;;;7.20;99.90;;;;;;4994388;28;20199;-66
2023/01/14 02:04:54;;;;;;;20.10;6.77;;;7.20;99.90;;;;;;4994995;28;20208;-66
2023/01/14 02:07:25;;;;;;;18.80;7.03;;;7.20;99.90;;;;;;4994562;28;20727;-66
2023/01/14 02:09:56;;;;;;;29.37;8.03;;;7.10;99.90;;;;;;4994847;28;20260;-65
2023/01/14 02:12:49;;;;;;;24.13;7.57;;;7.10;99.90;;;;;;4994818;28;20681;-65
2023/01/14 02:15:47;;;;;;;28.80;8.23;;;7.10;99.90;;;;;;5009317;28;20203;-66
2023/01/14 02:18:20;;;;;;;25.50;7.60;;;7.00;99.90;;;;;;5009157;28;20200;-66
2023/01/14 02:21:07;;;;;;;22.00;7.73;;;7.00;99.90;;;;;;4994055;28;20176;-66
2023/01/14 02:23:45;;;;;;;29.30;7.50;;;7.00;99.90;;;;;;4993465;28;20207;-66
2023/01/14 02:26:24;;;;;;;23.60;7.87;;;7.00;99.90;;;;;;4994107;28;20176;-66
2023/01/14 02:29:23;;;;;;;31.43;9.30;;;6.90;99.90;;;;;;4994326;28;20164;-66
2023/01/14 02:32:01;;;;;;;35.10;8.23;;;6.90;99.90;;;;;;5008901;28;20641;-66
2023/01/14 02:34:55;;;;;;;27.07;8.40;;;6.90;99.90;;;;;;5009205;28;20246;-65
2023/01/14 02:37:28;;;;;;;27.57;7.60;;;6.90;99.90;;;;;;4993895;28;20227;-66
2023/01/14 02:40:06;;;;;;;21.73;7.67;;;7.00;99.90;;;;;;4994211;28;20240;-66
2023/01/14 02:45:58;;;;;;;33.30;8.43;;;7.00;99.90;;;;;;4993951;28;20200;-66
2023/01/14 02:48:26;;;;;;;28.07;7.73;;;7.00;99.90;;;;;;4993791;28;20180;-66
2023/01/14 02:50:53;;;;;;;24.50;8.00;;;6.90;99.90;;;;;;4994369;28;20211;-66
2023/01/14 02:53:20;;;;;;;20.27;8.23;;;6.90;99.90;;;;;;4993817;28;20212;-66
2023/01/14 02:55:47;;;;;;;19.47;7.00;;;7.00;99.90;;;;;;5008794;28;20189;-66
2023/01/14 02:58:15;;;;;;;22.33;7.20;;;6.90;99.90;;;;;;4993736;28;20569;-66
2023/01/14 03:00:57;;;;;;;25.63;7.40;;;6.90;99.90;;;;;;4993703;28;20207;-65
2023/01/14 03:03:30;;;;;;;18.53;7.53;;;6.90;99.90;;;;;;4993603;28;20196;-66
2023/01/14 03:06:33;;;;;;;24.53;7.77;;;6.90;99.90;;;;;;4992528;28;20180;-65
2023/01/14 03:09:16;;;;;;;21.10;7.17;;;6.80;99.90;;;;;;4994315;28;20161;-66
2023/01/14 03:12:12;;;;;;;16.50;6.97;;;6.80;99.90;;;;;;4994156;28;20215;-66
2023/01/14 03:14:44;;;;;;;21.73;7.37;;;6.80;99.90;;;;;;4994291;28;20168;-66
2023/01/14 03:17:46;;;;;;;22.43;7.37;;;6.80;99.90;;;;;;5008431;28;20188;-66
2023/01/14 03:20:29;;;;;;;22.07;7.57;;;6.70;99.90;;;;;;4983259;28;20211;-66
2023/01/14 03:22:57;;;;;;;24.17;7.93;;;6.70;99.90;;;;;;4993619;28;20223;-66
2023/01/14 03:25:25;;;;;;;23.70;7.37;;;6.70;99.90;;;;;;5008700;28;20188;-66
2023/01/14 03:27:53;;;;;;;26.13;7.73;;;6.70;99.90;;;;;;4993709;28;20188;-66
2023/01/14 03:30:25;;;;;;;25.03;8.00;;;6.70;99.90;;;;;;5008871;28;20518;-66
2023/01/14 03:32:57;;;;;;;24.50;7.27;;;6.70;99.90;;;;;;4993370;28;20206;-66
2023/01/14 03:35:32;;;;;;;22.83;8.13;;;6.70;99.90;;;;;;4996341;28;20246;-66
2023/01/14 03:38:06;;;;;;;20.93;7.03;;;6.70;99.90;;;;;;5011964;28;20199;-66
2023/01/14 03:40:35;;;;;;;26.40;7.20;;;6.70;99.90;;;;;;4997151;28;20165;-66
2023/01/14 03:43:09;;;;;;;28.53;8.90;;;6.70;99.90;;;;;;4996891;28;20208;-67
2023/01/14 03:45:37;;;;;;;29.07;7.73;;;6.60;99.90;;;;;;5012053;28;20188;-66
2023/01/14 03:48:04;;;;;;;25.03;7.53;;;6.60;99.90;;;;;;4996719;28;20269;-66
2023/01/14 03:50:57;;;;;;;24.27;8.57;;;6.60;99.90;;;;;;4997588;28;20563;-65
2023/01/14 03:53:33;;;;;;;24.13;7.07;;;6.60;99.90;;;;;;4996662;28;20208;-66
2023/01/14 03:56:04;;;;;;;28.30;7.90;;;6.60;99.90;;;;;;4996994;28;20617;-66
2023/01/14 03:58:58;;;;;;;27.93;8.17;;;6.50;99.90;;;;;;4996476;28;20197;-64
2023/01/14 04:01:33;;;;;;;21.93;8.00;;;6.50;99.90;;;;;;4995088;28;20164;-65
2023/01/14 04:04:00;;;;;;;26.37;7.50;;;6.50;99.90;;;;;;4996701;28;20168;-64
2023/01/14 04:06:26;;;;;;;17.47;7.20;;;6.50;99.90;;;;;;4996778;28;20173;-64
2023/01/14 04:08:52;;;;;;;20.50;7.40;;;6.40;99.90;;;;;;4996599;28;20182;-64
2023/01/14 04:11:17;;;;;;;19.60;8.30;;;6.40;99.90;;;;;;4994850;28;20199;-65
2023/01/14 04:16:27;;;;;;;24.87;6.77;;;6.50;99.90;;;;;;4996354;28;20590;-65
2023/01/14 04:18:53;;;;;;;24.07;7.13;;;6.40;99.90;;;;;;4996614;28;20196;-64
2023/01/14 04:21:19;;;;;;;21.90;7.57;;;6.40;99.90;;;;;;4994710;28;20184;-64
2023/01/14 04:23:44;;;;;;;26.70;7.73;;;6.50;99.90;;;;;;4996070;28;20173;-64
2023/01/14 04:26:10;;;;;;;19.47;8.10;;;6.40;99.90;;;;;;4996293;28;20213;-64
2023/01/14 04:28:36;;;;;;;22.87;7.80;;;6.40;99.90;;;;;;4994773;28;20675;-64
2023/01/14 04:31:01;;;;;;;29.33;7.13;;;6.40;99.90;;;;;;4995939;28;20180;-64
2023/01/14 04:33:27;;;;;;;21.83;7.33;;;6.50;99.90;;;;;;5010742;28;20205;-64
2023/01/14 04:35:53;;;;;;;24.23;7.87;;;6.50;99.90;;;;;;5010784;28;20689;-64
2023/01/14 04:38:22;;;;;;;25.63;7.27;;;6.50;99.90;;;;;;4994499;28;20695;-64
2023/01/14 04:40:54;;;;;;;14.13;6.77;;;6.50;99.90;;;;;;4995759;28;20180;-64
2023/01/14 04:43:21;;;;;;;20.13;7.27;;;6.60;99.90;;;;;;4995760;28;20251;-64
2023/01/14 04:45:56;;;;;;;31.87;7.80;;;6.50;99.90;;;;;;4993740;28;20189;-64
2023/01/14 04:48:23;;;;;;;20.17;7.73;;;6.50;99.90;;;;;;4995532;28;20161;-64
2023/01/14 04:50:50;;;;;;;23.00;8.13;;;6.50;99.90;;;;;;4995738;28;20176;-64
2023/01/14 04:53:20;;;;;;;28.50;7.33;;;6.50;99.90;;;;;;4994103;28;20204;-64
2023/01/14 04:55:47;;;;;;;24.97;7.43;;;6.60;99.90;;;;;;4995616;28;20187;-64
2023/01/14 04:58:17;;;;;;;24.23;7.40;;;6.60;99.90;;;;;;4994077;28;20227;-64
2023/01/14 05:00:44;;;;;;;16.23;7.07;;;6.60;99.90;;;;;;4995299;28;20205;-64
2023/01/14 05:03:12;;;;;;;19.47;7.43;;;6.70;99.90;;;;;;4993837;28;20287;-64
2023/01/14 05:05:39;;;;;;;21.57;6.73;;;6.70;99.90;;;;;;4995213;28;20677;-64
2023/01/14 05:08:06;;;;;;;22.90;7.20;;;6.70;99.90;;;;;;4993955;28;20176;-64
2023/01/14 05:10:33;;;;;;;23.37;7.80;;;6.70;99.90;;;;;;4995154;28;20181;-64
2023/01/14 05:13:00;;;;;;;23.40;6.83;;;6.70;99.90;;;;;;4995099;28;20200;-64
2023/01/14 05:15:38;;;;;;;17.83;6.57;;;6.70;99.90;;;;;;5010106;28;20213;-64
2023/01/14 05:18:05;;;;;;;26.00;8.53;;;6.70;99.90;;;;;;4994939;28;20247;-64
2023/01/14 05:20:31;;;;;;;20.30;6.30;;;6.70;99.90;;;;;;4994995;28;20519;-64
2023/01/14 05:22:59;;;;;;;21.20;7.30;;;6.70;99.90;;;;;;4994908;28;20243;-64
2023/01/14 05:25:25;;;;;;;13.03;6.37;;;6.70;99.90;;;;;;4994855;28;20180;-64
2023/01/14 05:27:51;;;;;;;21.83;6.57;;;6.70;99.90;;;;;;4995151;28;20176;-64
2023/01/14 05:30:16;;;;;;;20.63;6.57;;;6.70;99.90;;;;;;4994985;28;20176;-66
2023/01/14 05:32:42;;;;;;;15.30;6.53;;;6.70;99.90;;;;;;4994744;28;20554;-64
2023/01/14 05:35:08;;;;;;;20.07;6.50;;;6.70;99.90;;;;;;4995305;28;20165;-64
2023/01/14 05:37:34;;;;;;;19.03;6.60;;;6.70;99.90;;;;;;4994924;28;20200;-64
2023/01/14 05:40:01;;;;;;;21.73;7.10;;;6.70;99.90;;;;;;4994546;28;20219;-64
2023/01/14 05:47:55;;;;;;;18.83;6.77;;;6.60;99.90;;;;;;4994743;28;20231;-64
2023/01/14 05:50:21;;;;;;;19.77;7.20;;;6.60;99.90;;;;;;4994750;28;20188;-64
2023/01/14 05:52:47;;;;;;;16.00;6.37;;;6.60;99.90;;;;;;4994329;28;20717;-64
2023/01/14 05:55:13;;;;;;;13.63;6.40;;;6.60;99.90;;;;;;4993110;28;20180;-64
2023/01/14 05:57:39;;;;;;;14.30;6.30;;;6.60;99.90;;;;;;4993874;28;20707;-64
2023/01/14 06:00:06;;;;;;;11.40;6.33;;;6.50;99.90;;;;;;4994270;28;20656;-64
2023/01/14 06:08:01;;;;;;;22.07;7.20;;;6.50;99.90;;;;;;4994355;28;20176;-64
2023/01/14 06:10:27;;;;;;;24.00;7.37;;;6.50;99.90;;;;;;4994453;28;20259;-64
2023/01/14 06:12:58;;;;;;;13.17;6.83;;;6.50;99.90;;;;;;4994241;28;20384;-64
2023/01/14 06:15:25;;;;;;;11.37;5.77;;;6.50;99.90;;;;;;4992890;28;20192;-64
2023/01/14 06:18:08;;;;;;;19.23;6.80;;;6.50;99.90;;;;;;4994139;28;20212;-64
2023/01/14 06:20:38;;;;;;;14.80;6.37;;;6.50;99.90;;;;;;5009178;28;20564;-64
2023/01/14 06:23:05;;;;;;;19.57;6.70;;;6.50;99.90;;;;;;4993999;28;20267;-64
2023/01/14 06:25:31;;;;;;;17.03;6.63;;;6.50;99.90;;;;;;4992785;28;20183;-64
2023/01/14 06:27:58;;;;;;;22.77;6.30;;;6.50;99.90;;;;;;4993998;28;20195;-65
2023/01/14 06:30:24;;;;;;;21.67;8.00;;;6.50;99.90;;;;;;4992671;28;20184;-64
2023/01/14 06:32:50;;;;;;;20.23;5.70;;;6.50;99.90;;;;;;4993784;28;20211;-64
2023/01/14 06:35:15;;;;;;;18.20;6.80;;;6.50;99.90;;;;;;4993871;28;20180;-64
2023/01/14 06:37:45;;;;;;;19.03;7.43;;;6.50;99.90;;;;;;4993823;28;20204;-64
2023/01/14 06:40:12;;;;;;;16.63;6.03;;;6.50;99.90;;;;;;4994701;28;20188;-64
2023/01/14 06:42:40;;;;;;;15.73;5.53;;;6.50;99.90;;;;;;4993724;28;20312;-64
2023/01/14 06:45:07;;;;;;;10.73;5.53;;;6.50;99.90;;;;;;4994055;28;20191;-64
2023/01/14 06:47:32;;;;;;;23.30;7.13;;;6.50;99.90;;;;;;4993626;28;20645;-64
2023/01/14 06:49:58;;;;;;;13.07;5.77;;;6.50;99.90;;;;;;4994095;28;20235;-64
2023/01/14 06:52:24;;;;;;;18.57;6.03;;;6.50;99.90;;;;;;4993903;28;20255;-64
2023/01/14 06:54:51;;;;;;;12.00;6.00;;;6.50;99.90;;;;;;4994173;28;20180;-64
2023/01/14 06:57:17;;;;;;;14.53;6.27;;;6.50;99.90;;;;;;4993652;28;20659;-64
2023/01/14 06:59:43;;;;;;;14.17;6.30;;;6.50;99.90;;;;;;4993786;28;20257;-64
2023/01/14 07:02:11;;;;;;;12.60;6.00;;;6.50;99.90;;;;;;5008811;28;20290;-64
2023/01/14 07:04:36;;;;;;;14.23;6.03;;;6.50;99.90;;;;;;4993907;28;20176;-64
2023/01/14 07:07:03;;;;;;;14.30;5.67;;;6.40;99.90;;;;;;4994080;28;20208;-64
2023/01/14 07:09:29;;;;;;;16.17;6.90;;;6.40;99.90;;;;;;4995273;28;20183;-64
2023/01/14 07:11:54;;;;;;;17.57;5.80;;;6.40;99.90;;;;;;4995984;28;20563;-63
2023/01/14 07:14:20;;;;;;;14.87;5.73;;;6.50;99.90;;;;;;4997827;28;20177;-64
2023/01/14 07:16:46;;;;;;;21.57;6.30;;;6.50;99.90;;;;;;4997656;28;20187;-66
2023/01/14 07:19:12;;;;;;;14.23;5.93;;;6.50;99.90;;;;;;4995780;28;20562;-65
2023/01/14 07:21:38;;;;;;;16.53;6.60;;;6.50;99.90;;;;;;4997581;28;20220;-66
2023/01/14 07:24:05;;;;;;;18.17;6.37;;;6.50;99.90;;;;;;4997573;28;20183;-65
2023/01/14 07:26:31;;;;;;;16.90;5.77;;;6.50;99.90;;;;;;4997067;28;20200;-65
2023/01/14 07:28:56;;;;;;;12.93;5.50;;;6.50;99.90;;;;;;5012260;28;20185;-65
2023/01/14 07:31:22;;;;;;;16.20;6.30;;;6.50;99.90;;;;;;4996949;28;20187;-65
2023/01/14 07:33:48;;;;;;;18.00;5.67;;;6.50;99.90;;;;;;4996871;28;20211;-65
2023/01/14 07:36:14;;;;;;;17.63;5.87;;;6.50;99.90;;;;;;4997442;28;20169;-65
2023/01/14 07:38:40;;;;;;;18.43;5.83;;;6.60;99.90;;;;;;4996987;28;20200;-66
2023/01/14 07:41:17;;;;;;;18.93;6.47;;;6.50;99.90;;;;;;4997159;28;20165;-65
2023/01/14 07:43:44;;;;;;;17.40;5.40;;;6.60;99.90;;;;;;4997127;28;20620;-66
2023/01/14 07:46:09;;;;;;;19.77;6.07;;;6.60;99.90;;;;;;4998096;28;20180;-65
2023/01/14 07:48:35;;;;;;;15.57;6.53;;;6.60;99.90;;;;;;4997577;28;20543;-65
2023/01/14 07:51:05;;;;;;;13.20;5.60;;;6.60;99.90;;;;;;4998570;28;20176;-64
2023/01/14 07:53:32;;;;;;;9.63;5.57;;;6.70;99.90;;;;;;4995870;28;20204;-65
2023/01/14 07:56:01;;;;;;;11.33;5.20;;;6.70;99.90;;;;;;4996751;28;20198;-65
2023/01/14 07:58:27;;;;;;;13.47;5.03;;;6.70;99.90;;;;;;4996775;28;20216;-65
2023/01/14 08:00:53;;;;;;;14.07;5.33;;;6.70;99.90;;;;;;4996691;28;20169;-65
2023/01/14 08:03:20;;;;;;;14.30;5.27;;;6.60;99.90;;;;;;4996325;28;20192;-65
2023/01/14 08:05:46;;;;;;;13.17;5.43;;;6.60;99.90;;;;;;4996398;28;20179;-65
2023/01/14 08:08:12;;;;;;;16.23;5.77;;;6.60;99.90;;;;;;4996607;28;20625;-65
2023/01/14 08:10:38;;;;;;;16.10;5.70;;;6.60;99.90;;;;;;4994992;28;20243;-65
2023/01/14 08:13:03;;;;;;;16.00;6.13;;;6.60;99.90;;;;;;4996282;28;20220;-65
2023/01/14 08:15:29;;;;;;;19.00;5.60;;;6.60;99.90;;;;;;4996061;28;20188;-66
2023/01/14 08:17:56;;;;;;;17.43;5.90;;;6.60;99.90;;;;;;4996111;28;20255;-65
2023/01/14 08:20:22;;;;;;;10.90;5.30;;;6.60;99.90;;;;;;4995225;28;20231;-65
2023/01/14 08:22:57;;;;;;;17.23;5.90;;;6.50;99.90;;;;;;4995833;28;20196;-65
2023/01/14 08:25:24;;;;;;;10.00;5.37;;;6.50;99.90;;;;;;4996034;28;20161;-66
2023/01/14 08:27:49;;;;;;;13.00;5.83;;;6.50;99.90;;;;;;4994629;28;20238;-66
2023/01/14 08:30:15;;;;;;;11.80;6.47;;;6.50;99.90;;;;;;4995852;28;20180;-66
2023/01/14 08:32:42;;;;;;;15.47;6.37;;;6.50;99.90;;;;;;4994380;28;20200;-66
2023/01/14 08:35:08;;;;;;;15.17;5.97;;;6.50;99.90;;;;;;4995869;28;20279;-66
2023/01/14 08:37:34;;;;;;;11.93;5.80;;;6.40;99.90;;;;;;4995671;28;20279;-65
2023/01/14 08:40:00;;;;;;;11.13;6.37;;;6.40;99.90;;;;;;5010795;28;20263;-66
2023/01/14 08:42:25;;;;;;;10.63;5.77;;;6.50;99.90;;;;;;5010584;28;20196;-66
2023/01/14 08:44:51;;;;;;;14.37;6.00;;;6.50;99.90;;;;;;4995639;28;20161;-66
2023/01/14 08:47:17;;;;;;;16.23;6.27;;;6.50;99.90;;;;;;4995507;28;20196;-66
2023/01/14 08:49:42;;;;;;;12.10;5.40;;;6.50;99.90;;;;;;4995751;28;20184;-65
2023/01/14 08:52:09;;;;;;;11.50;5.43;;;6.50;99.90;;;;;;4995793;28;20562;-66
2023/01/14 08:54:35;;;;;;;13.77;5.67;;;6.50;99.90;;;;;;5010488;28;20569;-66
2023/01/14 08:57:00;;;;;;;11.00;5.80;;;6.60;99.90;;;;;;4995637;28;20176;-66
2023/01/14 08:59:26;;;;;;;12.50;5.73;;;6.60;99.90;;;;;;4995826;28;20637;-65
2023/01/14 09:01:52;;;;;;;11.00;5.57;;;6.60;99.90;;;;;;4995189;28;20708;-66
2023/01/14 09:04:18;;;;;;;7.30;5.63;;;6.70;99.90;;;;;;5010250;28;20223;-65
2023/01/14 09:17:44;;;;;;;15.50;5.17;;;6.80;99.90;;;;;;4995164;28;20258;-65
2023/01/14 09:20:17;;;;;;;9.33;5.40;;;6.90;99.90;;;;;;5009920;28;20272;-65
2023/01/14 09:22:45;;;;;;;9.17;5.13;;;7.00;99.90;;;;;;4995384;28;20207;-65
2023/01/14 09:25:11;;;;;;;15.13;5.37;;;7.10;99.90;;;;;;4993510;28;20715;-65
2023/01/14 09:27:37;;;;;;;9.70;4.83;;;7.10;99.90;;;;;;4994747;28;20180;-65
2023/01/14 09:30:03;;;;;;;9.57;4.80;;;7.20;99.90;;;;;;4994721;28;20678;-65
2023/01/14 09:32:37;;;;;;;12.57;5.17;;;7.20;99.90;;;;;;4994286;28;20677;-65
2023/01/14 09:35:03;;;;;;;7.57;5.00;;;7.20;99.90;;;;;;4994649;28;20165;-65
2023/01/14 09:37:29;;;;;;;8.17;5.50;;;7.30;99.90;;;;;;4994735;28;20295;-65
2023/01/14 09:39:54;;;;;;;9.63;4.97;;;7.30;99.90;;;;;;4994574;28;20180;-65
2023/01/14 09:42:35;;;;;;;11.53;5.17;;;7.30;99.90;;;;;;4994321;28;20647;-66
2023/01/14 09:45:13;;;;;;;11.40;5.20;;;7.30;99.90;;;;;;4994480;28;20181;-66
2023/01/14 09:47:40;;;;;;;15.40;5.63;;;7.30;99.90;;;;;;4994449;28;20165;-65
2023/01/14 09:50:14;;;;;;;8.33;5.50;;;7.30;99.90;;;;;;5009671;28;20215;-65
2023/01/14 09:53:14;;;;;;;11.93;5.20;;;7.30;99.90;;;;;;4993049;28;20628;-65
2023/01/14 09:55:48;;;;;;;10.90;4.70;;;7.40;99.90;;;;;;4994638;28;20567;-65
2023/01/14 09:58:27;;;;;;;12.77;5.37;;;7.40;99.90;;;;;;4994505;28;20242;-65
2023/01/14 10:01:19;;;;;;;9.73;4.70;;;7.40;99.90;;;;;;5009430;28;20196;-65
2023/01/14 10:03:54;;;;;;;8.37;4.83;;;7.50;99.90;;;;;;4983459;28;20189;-65
2023/01/14 10:06:21;;;;;;;8.43;5.33;;;7.50;99.90;;;;;;4992912;28;20168;-65
2023/01/14 10:08:53;;;;;;;9.13;4.30;;;7.60;99.90;;;;;;4994167;28;20184;-65
2023/01/14 10:11:21;;;;;;;12.30;5.00;;;7.60;99.90;;;;;;4994057;28;20169;-65
2023/01/14 10:14:04;;;;;;;7.73;4.70;;;7.60;99.90;;;;;;4994106;28;20176;-65
2023/01/14 10:16:37;;;;;;;8.83;5.27;;;7.70;99.90;;;;;;4994296;28;20184;-65
2023/01/14 10:19:18;;;;;;;11.03;4.83;;;7.70;99.90;;;;;;5008939;28;20266;-65
2023/01/14 10:22:12;;;;;;;7.93;3.97;;;7.70;99.90;;;;;;5008964;28;20201;-65
2023/01/14 10:24:41;;;;;;;7.20;4.50;;;7.80;99.90;;;;;;4994103;28;20611;-65
2023/01/14 10:27:15;;;;;;;5.97;4.27;;;7.80;99.90;;;;;;5009020;28;20185;-65
2023/01/14 10:29:42;;;;;;;4.80;4.40;;;7.90;99.90;;;;;;4992876;28;20173;-65
2023/01/14 10:32:12;;;;;;;8.20;4.60;;;7.90;99.90;;;;;;4992563;28;20287;-65
2023/01/14 10:34:43;;;;;;;7.73;4.30;;;8.00;99.90;;;;;;4993988;28;20180;-65
2023/01/14 10:37:10;;;;;;;8.20;4.57;;;8.00;99.90;;;;;;4994022;28;20180;-65
2023/01/14 10:39:43;;;;;;;7.80;4.10;;;8.00;99.90;;;;;;4994057;28;20191;-65
2023/01/14 10:42:11;;;;;;;6.43;4.37;;;8.10;99.90;;;;;;5009037;28;20207;-65
2023/01/14 10:44:43;;;;;;;8.43;4.53;;;8.10;99.90;;;;;;4995766;28;20215;-65
2023/01/14 10:47:19;;;;;;;5.77;4.10;;;8.10;99.90;;;;;;4998124;28;20153;-65
2023/01/14 10:49:54;;;;;;;9.33;4.70;;;8.00;99.90;;;;;;4998533;28;20164;-65
2023/01/14 10:52:20;;;;;;;6.33;4.07;;;8.00;99.90;;;;;;5012843;28;20199;-65
2023/01/14 10:54:57;;;;;;;4.93;4.00;;;8.00;99.90;;;;;;4997905;28;20203;-65
2023/01/14 10:57:24;;;;;;;7.10;4.23;;;8.00;99.90;;;;;;4997727;28;20191;-65
2023/01/14 10:59:52;;;;;;;5.57;4.37;;;7.90;99.90;;;;;;4998101;28;20172;-65
2023/01/14 11:02:37;;;;;;;5.87;3.80;;;7.90;99.90;;;;;;4996149;28;20227;-66
2023/01/14 11:05:27;;;;;;;5.13;4.03;;;7.90;99.90;;;;;;4997902;28;20556;-65
2023/01/14 11:07:56;;;;;;;11.77;4.43;;;7.90;99.90;;;;;;4997475;28;20192;-65
2023/01/14 11:10:30;;;;;;;6.63;4.27;;;7.80;99.90;;;;;;4998014;28;20239;-65
2023/01/14 11:13:23;;;;;;;9.60;4.87;;;7.80;99.90;;;;;;4997746;28;20188;-65
2023/01/14 11:15:49;;;;;;;4.07;3.77;;;7.90;99.90;;;;;;4997534;28;20207;-64
2023/01/14 11:18:18;;;;;;;7.33;3.97;;;7.90;99.90;;;;;;5012218;28;20677;-65
2023/01/14 11:20:53;;;;;;;6.57;3.93;;;7.90;99.90;;;;;;5012345;28;20661;-65
2023/01/14 11:23:31;;;;;;;4.37;4.07;;;7.80;99.90;;;;;;4995842;28;20200;-65
2023/01/14 11:26:08;;;;;;;6.67;4.00;;;7.80;99.90;;;;;;4997572;28;20238;-65
2023/01/14 11:28:38;;;;;;;8.90;4.17;;;7.70;99.90;;;;;;4995859;28;20176;-65
2023/01/14 11:31:04;;;;;;;8.33;4.50;;;7.70;99.90;;;;;;4997422;28;20311;-65
2023/01/14 11:33:32;;;;;;;9.60;4.90;;;7.70;99.90;;;;;;4996818;28;20196;-64
2023/01/14 11:35:58;;;;;;;4.60;3.80;;;7.70;99.90;;;;;;4997137;28;20263;-65
2023/01/14 11:38:26;;;;;;;6.60;4.13;;;7.70;99.90;;;;;;4996872;28;20196;-65
2023/01/14 11:43:52;;;;;;;5.77;3.97;;;7.70;99.90;;;;;;4996766;28;20282;-65
2023/01/14 11:46:18;;;;;;;4.60;4.20;;;7.60;99.90;;;;;;4996631;28;20665;-65
2023/01/14 11:48:58;;;;;;;5.97;4.23;;;7.60;99.90;;;;;;4996502;28;20235;-65
2023/01/14 11:51:25;;;;;;;4.27;3.87;;;7.60;99.90;;;;;;4996866;28;20177;-65
2023/01/14 11:53:53;;;;;;;5.60;3.90;;;7.60;99.90;;;;;;4996651;28;20200;-66
2023/01/14 11:56:40;;;;;;;5.50;3.93;;;7.70;99.90;;;;;;4996630;28;20320;-66
2023/01/14 11:59:22;;;;;;;5.10;3.93;;;7.70;99.90;;;;;;4996473;28;20393;-67
2023/01/14 12:01:52;;;;;;;5.50;3.90;;;7.70;99.90;;;;;;5011444;28;20287;-66
2023/01/14 12:04:24;;;;;;;4.57;3.70;;;7.70;99.90;;;;;;4994988;28;20207;-67
2023/01/14 12:07:03;;;;;;;6.27;3.70;;;7.70;99.90;;;;;;4996496;28;20149;-66
2023/01/14 12:09:48;;;;;;;4.00;3.70;;;7.70;99.90;;;;;;4996710;28;20680;-66
2023/01/14 12:12:24;;;;;;;4.80;3.67;;;7.80;99.90;;;;;;4996436;28;20559;-66
2023/01/14 12:17:51;;;;;;;6.30;3.47;;;7.90;99.90;;;;;;4996514;28;20223;-66
2023/01/14 12:20:21;;;;;;;3.83;3.50;;;7.90;99.90;;;;;;4996450;28;20157;-66
2023/01/14 12:22:51;;;;;;;3.63;3.33;;;8.00;99.90;;;;;;4996140;28;20192;-66
2023/01/14 12:25:29;;;;;;;3.70;3.40;;;8.00;99.90;;;;;;5011207;28;20552;-67
2023/01/14 12:28:22;;;;;;;3.43;3.20;;;8.10;99.90;;;;;;4994766;28;20176;-65
2023/01/14 12:30:47;;;;;;;4.10;3.57;;;8.20;99.90;;;;;;4996462;28;20181;-65
2023/01/14 12:33:31;;;;;;;4.10;3.70;;;8.20;99.90;;;;;;4995936;28;20673;-66
2023/01/14 12:36:14;;;;;;;5.97;3.60;;;8.20;99.90;;;;;;4995969;28;20171;-66
2023/01/14 12:47:27;;;;;;;5.20;3.50;;;8.20;99.90;;;;;;4995579;28;20187;-64
2023/01/14 12:49:53;;;;;;;3.80;3.50;;;8.10;99.90;;;;;;5010894;28;20652;-64
2023/01/14 12:52:40;;;;;;;3.90;3.60;;;8.10;99.90;;;;;;4995802;28;20215;-64
2023/01/14 12:55:16;;;;;;;4.83;3.93;;;8.20;99.90;;;;;;4995988;28;20192;-65
2023/01/14 12:57:42;;;;;;;3.97;3.67;;;8.30;99.90;;;;;;4995870;28;20281;-65
2023/01/14 13:00:11;;;;;;;5.30;3.70;;;8.40;99.90;;;;;;4995618;28;20203;-65
2023/01/14 13:02:45;;;;;;;3.70;3.50;;;8.40;99.90;;;;;;4995510;28;20233;-64
2023/01/14 13:05:14;;;;;;;3.90;3.60;;;8.30;99.90;;;;;;4995788;28;20157;-64
2023/01/14 13:07:53;;;;;;;4.27;3.87;;;8.30;99.90;;;;;;4994763;28;20177;-64
2023/01/14 13:10:39;;;;;;;4.20;3.80;;;8.30;99.90;;;;;;4995619;28;20247;-64
2023/01/14 13:13:18;;;;;;;4.00;3.70;;;8.30;99.90;;;;;;4995286;28;20198;-64
2023/01/14 13:15:43;;;;;;;3.73;3.43;;;8.30;99.90;;;;;;4995043;28;20629;-64
2023/01/14 13:18:35;;;;;;;3.87;3.60;;;8.30;99.90;;;;;;4994837;28;20263;-64
2023/01/14 13:21:03;;;;;;;4.87;3.73;;;8.30;99.90;;;;;;4988409;28;20524;-64
2023/01/14 13:23:51;;;;;;;5.40;4.23;;;8.30;99.90;;;;;;4994929;28;20193;-64
2023/01/14 13:26:40;;;;;;;4.33;3.63;;;8.30;99.90;;;;;;4994894;28;20263;-64
2023/01/14 13:29:14;;;;;;;4.50;4.10;;;8.30;99.90;;;;;;4994890;28;20181;-63
2023/01/14 13:31:40;;;;;;;9.03;6.10;;;8.30;99.90;;;;;;5009906;28;20683;-64
2023/01/14 13:34:21;;;;;;;5.67;4.90;;;8.30;99.90;;;;;;4994906;28;20212;-65
2023/01/14 13:36:56;;;;;;;5.00;4.60;;;8.40;99.90;;;;;;4994866;28;20168;-65
2023/01/14 13:39:23;;;;;;;5.33;4.93;;;8.30;99.90;;;;;;4994806;28;20620;-65
2023/01/14 13:41:52;;;;;;;4.20;3.80;;;8.30;99.90;;;;;;4994917;28;20220;-65
2023/01/14 13:44:37;;;;;;;4.53;4.13;;;8.40;99.90;;;;;;4993478;28;20192;-65
2023/01/14 13:47:06;;;;;;;3.87;3.57;;;8.30;99.90;;;;;;5010820;28;20517;-65
2023/01/14 13:49:38;;;;;;;6.63;5.10;;;8.30;99.90;;;;;;4995341;28;20196;-65
2023/01/14 13:52:21;;;;;;;6.33;4.83;;;8.30;99.90;;;;;;4993851;28;20204;-65